sensor_id;sensor_type;location;lat;lon;timestamp;pressure;altitude;pressure_sealevel;temperature;humidity
9525;BME280;15940;48.734;9.112;2023-01-29T00:01:52;97598.06;;;-0.31;80.02
9525;BME280;15940;48.734;9.112;2023-01-29T00:04:20;97591.19;;;-0.25;80.11
9525;BME280;15940;48.734;9.112;2023-01-29T00:06:48;97592.25;;;-0.08;79.67
9525;BME280;15940;48.734;9.112;2023-01-29T00:09:15;97599.34;;;0.09;78.63
9525;BME280;15940;48.734;9.112;2023-01-29T00:11:42;97594.41;;;0.08;78.93
9525;BME280;15940;48.734;9.112;2023-01-29T00:14:09;97590.59;;;0.09;78.27
9525;BME280;15940;48.734;9.112;2023-01-29T00:16:36;97591.78;;;0.04;77.70
9525;BME280;15940;48.734;9.112;2023-01-29T00:19:03;97599.72;;;0.11;78.23
9525;BME280;15940;48.734;9.112;2023-01-29T00:21:30;97588.00;;;0.02;78.10
9525;BME280;15940;48.734;9.112;2023-01-29T00:23:59;97601.81;;;-0.18;77.42
9525;BME280;15940;48.734;9.112;2023-01-29T00:26:26;97587.75;;;-0.22;76.98
9525;BME280;15940;48.734;9.112;2023-01-29T00:28:54;97588.06;;;-0.13;77.82
9525;BME280;15940;48.734;9.112;2023-01-29T00:31:24;97589.63;;;-0.15;78.26
9525;BME280;15940;48.734;9.112;2023-01-29T00:33:52;97602.13;;;-0.12;79.03
9525;BME280;15940;48.734;9.112;2023-01-29T00:36:20;97592.59;;;-0.06;78.35
9525;BME280;15940;48.734;9.112;2023-01-29T00:38:53;97590.25;;;0.03;78.19
9525;BME280;15940;48.734;9.112;2023-01-29T00:41:26;97589.19;;;-0.10;76.83
9525;BME280;15940;48.734;9.112;2023-01-29T00:44:08;97584.00;;;-0.28;79.05
9525;BME280;15940;48.734;9.112;2023-01-29T00:46:52;97583.66;;;-0.41;79.19
9525;BME280;15940;48.734;9.112;2023-01-29T00:49:19;97586.53;;;-0.10;80.02
9525;BME280;15940;48.734;9.112;2023-01-29T00:51:46;97590.44;;;-0.25;77.62
9525;BME280;15940;48.734;9.112;2023-01-29T00:54:33;97584.00;;;-0.32;77.80
9525;BME280;15940;48.734;9.112;2023-01-29T00:57:02;97580.13;;;-0.20;77.49
9525;BME280;15940;48.734;9.112;2023-01-29T00:59:29;97589.25;;;-0.17;77.66
9525;BME280;15940;48.734;9.112;2023-01-29T01:01:56;97590.75;;;-0.20;77.81
9525;BME280;15940;48.734;9.112;2023-01-29T01:04:41;97579.19;;;0.08;78.26
9525;BME280;15940;48.734;9.112;2023-01-29T01:07:07;97586.09;;;0.02;76.67
9525;BME280;15940;48.734;9.112;2023-01-29T01:09:34;97589.53;;;-0.05;77.11
9525;BME280;15940;48.734;9.112;2023-01-29T01:12:21;97589.97;;;-0.13;77.36
9525;BME280;15940;48.734;9.112;2023-01-29T01:14:48;97588.53;;;-0.29;78.77
9525;BME280;15940;48.734;9.112;2023-01-29T01:17:15;97588.38;;;-0.04;77.13
9525;BME280;15940;48.734;9.112;2023-01-29T01:19:42;97588.50;;;-0.21;76.86
9525;BME280;15940;48.734;9.112;2023-01-29T01:22:09;97589.28;;;-0.24;77.67
9525;BME280;15940;48.734;9.112;2023-01-29T01:24:37;97580.25;;;-0.38;77.54
9525;BME280;15940;48.734;9.112;2023-01-29T01:27:04;97593.22;;;-0.54;77.00
9525;BME280;15940;48.734;9.112;2023-01-29T01:29:32;97580.34;;;-0.63;78.70
9525;BME280;15940;48.734;9.112;2023-01-29T01:31:59;97584.56;;;-0.72;79.49
9525;BME280;15940;48.734;9.112;2023-01-29T01:34:27;97576.06;;;-0.42;79.26
9525;BME280;15940;48.734;9.112;2023-01-29T01:36:55;97579.50;;;-0.45;77.02
9525;BME280;15940;48.734;9.112;2023-01-29T01:39:22;97580.72;;;-0.61;79.91
9525;BME280;15940;48.734;9.112;2023-01-29T01:41:50;97573.91;;;-0.69;78.88
9525;BME280;15940;48.734;9.112;2023-01-29T01:44:53;97583.03;;;-0.66;80.75
9525;BME280;15940;48.734;9.112;2023-01-29T01:47:27;97573.41;;;-0.42;79.06
9525;BME280;15940;48.734;9.112;2023-01-29T01:50:02;97579.78;;;-0.29;77.96
9525;BME280;15940;48.734;9.112;2023-01-29T01:52:32;97572.59;;;-0.32;77.93
9525;BME280;15940;48.734;9.112;2023-01-29T01:55:03;97576.44;;;-0.44;77.00
9525;BME280;15940;48.734;9.112;2023-01-29T01:57:31;97560.06;;;-0.35;78.64
9525;BME280;15940;48.734;9.112;2023-01-29T02:00:05;97563.47;;;-0.38;77.17
9525;BME280;15940;48.734;9.112;2023-01-29T02:02:38;97562.78;;;-0.49;78.73
9525;BME280;15940;48.734;9.112;2023-01-29T02:05:24;97567.00;;;-0.52;77.56
9525;BME280;15940;48.734;9.112;2023-01-29T02:08:09;97565.88;;;-0.54;78.84
9525;BME280;15940;48.734;9.112;2023-01-29T02:10:54;97570.47;;;-0.69;77.08
9525;BME280;15940;48.734;9.112;2023-01-29T02:13:22;97576.25;;;-0.89;78.79
9525;BME280;15940;48.734;9.112;2023-01-29T02:15:50;97583.50;;;-0.93;78.52
9525;BME280;15940;48.734;9.112;2023-01-29T02:18:20;97581.91;;;-0.79;79.86
9525;BME280;15940;48.734;9.112;2023-01-29T02:21:22;97584.09;;;-0.53;79.42
9525;BME280;15940;48.734;9.112;2023-01-29T02:24:36;97585.56;;;-0.41;79.01
9525;BME280;15940;48.734;9.112;2023-01-29T02:27:10;97590.22;;;-0.56;77.01
9525;BME280;15940;48.734;9.112;2023-01-29T02:29:55;97589.84;;;-0.69;76.56
9525;BME280;15940;48.734;9.112;2023-01-29T02:32:33;97593.66;;;-0.70;78.16
9525;BME280;15940;48.734;9.112;2023-01-29T02:35:14;97593.22;;;-0.50;77.29
9525;BME280;15940;48.734;9.112;2023-01-29T02:38:06;97589.72;;;-0.37;77.56
9525;BME280;15940;48.734;9.112;2023-01-29T02:40:41;97583.31;;;-0.46;77.49
9525;BME280;15940;48.734;9.112;2023-01-29T02:43:26;97580.25;;;-0.48;78.11
9525;BME280;15940;48.734;9.112;2023-01-29T02:46:02;97581.31;;;-0.32;77.17
9525;BME280;15940;48.734;9.112;2023-01-29T02:48:40;97588.16;;;-0.27;76.55
9525;BME280;15940;48.734;9.112;2023-01-29T02:51:17;97587.84;;;-0.36;74.96
9525;BME280;15940;48.734;9.112;2023-01-29T02:53:52;97573.25;;;-0.14;74.18
9525;BME280;15940;48.734;9.112;2023-01-29T02:56:27;97585.06;;;-0.22;76.14
9525;BME280;15940;48.734;9.112;2023-01-29T02:59:03;97584.69;;;-0.17;76.02
9525;BME280;15940;48.734;9.112;2023-01-29T03:01:37;97577.44;;;-0.16;75.46
9525;BME280;15940;48.734;9.112;2023-01-29T03:04:10;97574.84;;;-0.27;75.32
9525;BME280;15940;48.734;9.112;2023-01-29T03:06:40;97569.84;;;-0.21;76.74
9525;BME280;15940;48.734;9.112;2023-01-29T03:09:12;97568.28;;;-0.08;75.76
9525;BME280;15940;48.734;9.112;2023-01-29T03:11:45;97580.19;;;-0.27;75.29
9525;BME280;15940;48.734;9.112;2023-01-29T03:14:17;97572.88;;;-0.16;75.73
9525;BME280;15940;48.734;9.112;2023-01-29T03:16:50;97578.72;;;-0.42;75.09
9525;BME280;15940;48.734;9.112;2023-01-29T03:19:20;97584.09;;;-0.53;75.37
9525;BME280;15940;48.734;9.112;2023-01-29T03:21:54;97575.00;;;-0.59;74.60
9525;BME280;15940;48.734;9.112;2023-01-29T03:24:33;97574.34;;;-0.81;74.55
9525;BME280;15940;48.734;9.112;2023-01-29T03:27:23;97575.41;;;-0.68;77.15
9525;BME280;15940;48.734;9.112;2023-01-29T03:30:13;97574.31;;;-0.74;77.18
9525;BME280;15940;48.734;9.112;2023-01-29T03:33:04;97578.19;;;-1.00;75.70
9525;BME280;15940;48.734;9.112;2023-01-29T03:35:35;97573.63;;;-1.06;77.24
9525;BME280;15940;48.734;9.112;2023-01-29T03:38:06;97578.63;;;-1.19;78.23
9525;BME280;15940;48.734;9.112;2023-01-29T03:40:40;97580.81;;;-0.96;78.23
9525;BME280;15940;48.734;9.112;2023-01-29T03:43:16;97567.91;;;-0.91;78.44
9525;BME280;15940;48.734;9.112;2023-01-29T03:45:54;97570.91;;;-0.81;78.24
9525;BME280;15940;48.734;9.112;2023-01-29T03:48:32;97560.63;;;-0.72;76.26
9525;BME280;15940;48.734;9.112;2023-01-29T03:51:13;97567.44;;;-0.71;78.23
9525;BME280;15940;48.734;9.112;2023-01-29T03:53:46;97581.06;;;-0.59;77.21
9525;BME280;15940;48.734;9.112;2023-01-29T03:56:27;97567.44;;;-0.68;75.79
9525;BME280;15940;48.734;9.112;2023-01-29T03:59:03;97583.44;;;-0.78;77.39
9525;BME280;15940;48.734;9.112;2023-01-29T04:01:41;97581.06;;;-0.59;77.67
9525;BME280;15940;48.734;9.112;2023-01-29T04:04:17;97579.59;;;-0.70;77.10
9525;BME280;15940;48.734;9.112;2023-01-29T04:06:48;97573.09;;;-0.55;75.01
9525;BME280;15940;48.734;9.112;2023-01-29T04:09:19;97570.88;;;-0.78;75.66
9525;BME280;15940;48.734;9.112;2023-01-29T04:11:54;97575.53;;;-1.00;75.85
9525;BME280;15940;48.734;9.112;2023-01-29T04:14:23;97580.53;;;-1.23;76.69
9525;BME280;15940;48.734;9.112;2023-01-29T04:16:53;97576.00;;;-1.37;78.50
9525;BME280;15940;48.734;9.112;2023-01-29T04:19:24;97580.16;;;-1.32;79.30
9525;BME280;15940;48.734;9.112;2023-01-29T04:22:01;97577.50;;;-1.29;80.07
9525;BME280;15940;48.734;9.112;2023-01-29T04:24:29;97581.22;;;-0.98;79.31
9525;BME280;15940;48.734;9.112;2023-01-29T04:27:10;97570.88;;;-0.71;78.40
9525;BME280;15940;48.734;9.112;2023-01-29T04:29:56;97573.75;;;-0.40;77.20
9525;BME280;15940;48.734;9.112;2023-01-29T04:32:31;97585.06;;;-0.22;76.02
9525;BME280;15940;48.734;9.112;2023-01-29T04:35:19;97579.56;;;-0.56;74.23
9525;BME280;15940;48.734;9.112;2023-01-29T04:38:01;97582.22;;;-0.56;76.27
9525;BME280;15940;48.734;9.112;2023-01-29T04:40:45;97583.03;;;-0.66;76.75
9525;BME280;15940;48.734;9.112;2023-01-29T04:43:20;97582.22;;;-0.60;76.35
9525;BME280;15940;48.734;9.112;2023-01-29T04:46:06;97584.53;;;-0.65;76.30
9525;BME280;15940;48.734;9.112;2023-01-29T04:48:48;97580.38;;;-0.66;77.35
9525;BME280;15940;48.734;9.112;2023-01-29T04:51:26;97576.19;;;-0.71;77.36
9525;BME280;15940;48.734;9.112;2023-01-29T04:54:02;97579.22;;;-0.65;77.36
9525;BME280;15940;48.734;9.112;2023-01-29T04:56:37;97574.25;;;-0.60;77.91
9525;BME280;15940;48.734;9.112;2023-01-29T04:59:10;97573.03;;;-0.48;75.93
9525;BME280;15940;48.734;9.112;2023-01-29T05:01:38;97582.91;;;-0.38;76.05
9525;BME280;15940;48.734;9.112;2023-01-29T05:04:09;97571.91;;;-0.50;76.69
9525;BME280;15940;48.734;9.112;2023-01-29T05:06:40;97575.81;;;-0.69;76.95
9525;BME280;15940;48.734;9.112;2023-01-29T05:09:12;97576.22;;;-0.81;77.21
9525;BME280;15940;48.734;9.112;2023-01-29T05:11:40;97590.31;;;-0.95;77.57
9525;BME280;15940;48.734;9.112;2023-01-29T05:14:10;97587.25;;;-0.79;77.53
9525;BME280;15940;48.734;9.112;2023-01-29T05:16:42;97583.91;;;-1.01;77.20
9525;BME280;15940;48.734;9.112;2023-01-29T05:19:12;97579.31;;;-0.90;78.14
9525;BME280;15940;48.734;9.112;2023-01-29T05:21:44;97574.34;;;-0.84;78.66
9525;BME280;15940;48.734;9.112;2023-01-29T05:24:15;97582.63;;;-0.68;77.94
9525;BME280;15940;48.734;9.112;2023-01-29T05:26:44;97574.38;;;-0.92;76.27
9525;BME280;15940;48.734;9.112;2023-01-29T05:29:30;97585.81;;;-1.16;77.52
9525;BME280;15940;48.734;9.112;2023-01-29T05:31:57;97584.69;;;-1.26;79.43
9525;BME280;15940;48.734;9.112;2023-01-29T05:34:24;97586.53;;;-1.05;78.19
9525;BME280;15940;48.734;9.112;2023-01-29T05:36:52;97587.72;;;-1.17;78.86
9525;BME280;15940;48.734;9.112;2023-01-29T05:39:19;97591.91;;;-1.12;79.20
9525;BME280;15940;48.734;9.112;2023-01-29T05:41:46;97594.59;;;-1.23;78.03
9525;BME280;15940;48.734;9.112;2023-01-29T05:44:13;97587.34;;;-1.11;79.16
9525;BME280;15940;48.734;9.112;2023-01-29T05:46:40;97582.38;;;-1.02;79.87
9525;BME280;15940;48.734;9.112;2023-01-29T05:49:08;97578.19;;;-1.00;78.90
9525;BME280;15940;48.734;9.112;2023-01-29T05:51:35;97573.94;;;-0.79;78.78
9525;BME280;15940;48.734;9.112;2023-01-29T05:54:04;97572.81;;;-0.86;78.74
9525;BME280;15940;48.734;9.112;2023-01-29T05:56:31;97551.09;;;-0.66;77.25
9525;BME280;15940;48.734;9.112;2023-01-29T05:58:58;97544.25;;;-0.71;77.16
9525;BME280;15940;48.734;9.112;2023-01-29T06:01:25;97534.03;;;-0.76;76.66
9525;BME280;15940;48.734;9.112;2023-01-29T06:03:52;97533.69;;;-0.81;76.77
9525;BME280;15940;48.734;9.112;2023-01-29T06:06:19;97537.13;;;-0.88;77.60
9525;BME280;15940;48.734;9.112;2023-01-29T06:08:46;97544.31;;;-0.81;77.56
9525;BME280;15940;48.734;9.112;2023-01-29T06:11:15;97549.13;;;-0.51;77.23
9525;BME280;15940;48.734;9.112;2023-01-29T06:13:43;97544.09;;;-0.35;75.60
9525;BME280;15940;48.734;9.112;2023-01-29T06:16:11;97555.28;;;-0.65;74.58
9525;BME280;15940;48.734;9.112;2023-01-29T06:18:40;97552.63;;;-0.69;76.28
9525;BME280;15940;48.734;9.112;2023-01-29T06:21:09;97552.19;;;-0.56;76.37
9525;BME280;15940;48.734;9.112;2023-01-29T06:23:37;97562.84;;;-0.60;77.13
9525;BME280;15940;48.734;9.112;2023-01-29T06:26:07;97560.59;;;-0.69;76.33
9525;BME280;15940;48.734;9.112;2023-01-29T06:28:37;97561.41;;;-0.75;76.10
9525;BME280;15940;48.734;9.112;2023-01-29T06:31:06;97568.59;;;-0.76;74.93
9525;BME280;15940;48.734;9.112;2023-01-29T06:33:33;97569.75;;;-0.73;76.96
9525;BME280;15940;48.734;9.112;2023-01-29T06:36:03;97560.19;;;-0.60;76.88
9525;BME280;15940;48.734;9.112;2023-01-29T06:38:30;97562.41;;;-0.44;75.67
9525;BME280;15940;48.734;9.112;2023-01-29T06:40:57;97573.81;;;-0.47;74.90
9525;BME280;15940;48.734;9.112;2023-01-29T06:43:24;97574.19;;;-0.49;75.81
9525;BME280;15940;48.734;9.112;2023-01-29T06:45:54;97575.31;;;-0.43;75.08
9525;BME280;15940;48.734;9.112;2023-01-29T06:48:22;97572.69;;;-0.53;74.92
9525;BME280;15940;48.734;9.112;2023-01-29T06:50:50;97580.72;;;-0.61;75.73
9525;BME280;15940;48.734;9.112;2023-01-29T06:53:20;97568.50;;;-0.51;76.19
9525;BME280;15940;48.734;9.112;2023-01-29T06:55:50;97557.88;;;-0.54;75.60
9525;BME280;15940;48.734;9.112;2023-01-29T06:58:18;97564.47;;;-0.84;75.00
9525;BME280;15940;48.734;9.112;2023-01-29T07:00:45;97572.13;;;-1.07;75.77
9525;BME280;15940;48.734;9.112;2023-01-29T07:03:14;97575.91;;;-1.05;76.87
9525;BME280;15940;48.734;9.112;2023-01-29T07:05:41;97580.88;;;-1.14;77.64
9525;BME280;15940;48.734;9.112;2023-01-29T07:08:08;97577.41;;;-0.90;78.11
9525;BME280;15940;48.734;9.112;2023-01-29T07:10:35;97579.59;;;-0.70;77.75
9525;BME280;15940;48.734;9.112;2023-01-29T07:13:02;97593.53;;;-0.41;76.55
9525;BME280;15940;48.734;9.112;2023-01-29T07:15:28;97582.09;;;-0.27;75.73
9525;BME280;15940;48.734;9.112;2023-01-29T07:17:57;97582.13;;;-0.38;73.41
9525;BME280;15940;48.734;9.112;2023-01-29T07:20:27;97576.50;;;-0.58;73.49
9525;BME280;15940;48.734;9.112;2023-01-29T07:22:56;97577.78;;;-0.84;73.37
9525;BME280;15940;48.734;9.112;2023-01-29T07:25:24;97580.06;;;-0.93;75.34
9525;BME280;15940;48.734;9.112;2023-01-29T07:27:51;97588.78;;;-0.86;75.96
9525;BME280;15940;48.734;9.112;2023-01-29T07:30:18;97581.91;;;-0.72;77.60
9525;BME280;15940;48.734;9.112;2023-01-29T07:32:45;97585.31;;;-0.65;76.20
9525;BME280;15940;48.734;9.112;2023-01-29T07:35:12;97589.16;;;-0.83;74.15
9525;BME280;15940;48.734;9.112;2023-01-29T07:37:41;97583.16;;;-1.09;74.58
9525;BME280;15940;48.734;9.112;2023-01-29T07:40:09;97596.03;;;-0.93;76.73
9525;BME280;15940;48.734;9.112;2023-01-29T07:42:37;97599.41;;;-0.86;76.36
9525;BME280;15940;48.734;9.112;2023-01-29T07:45:08;97604.00;;;-0.97;75.62
9525;BME280;15940;48.734;9.112;2023-01-29T07:47:35;97605.53;;;-0.99;76.20
9525;BME280;15940;48.734;9.112;2023-01-29T07:50:03;97602.91;;;-1.13;76.32
9525;BME280;15940;48.734;9.112;2023-01-29T07:52:31;97608.19;;;-0.85;77.99
9525;BME280;15940;48.734;9.112;2023-01-29T07:55:00;97613.47;;;-0.81;75.47
9525;BME280;15940;48.734;9.112;2023-01-29T07:57:27;97600.53;;;-0.79;76.63
9525;BME280;15940;48.734;9.112;2023-01-29T07:59:55;97616.16;;;-0.89;75.29
9525;BME280;15940;48.734;9.112;2023-01-29T08:02:22;97614.94;;;-0.70;76.91
9525;BME280;15940;48.734;9.112;2023-01-29T08:04:48;97624.81;;;-0.67;74.77
9525;BME280;15940;48.734;9.112;2023-01-29T08:07:15;97626.31;;;-0.62;75.96
9525;BME280;15940;48.734;9.112;2023-01-29T08:09:42;97617.44;;;-0.31;75.53
9525;BME280;15940;48.734;9.112;2023-01-29T08:12:10;97612.88;;;-0.30;73.65
9525;BME280;15940;48.734;9.112;2023-01-29T08:14:39;97611.88;;;-0.61;72.59
9525;BME280;15940;48.734;9.112;2023-01-29T08:17:06;97616.72;;;-0.38;75.29
9525;BME280;15940;48.734;9.112;2023-01-29T08:19:32;97615.59;;;-0.37;73.77
9525;BME280;15940;48.734;9.112;2023-01-29T08:21:59;97611.78;;;-0.40;73.42
9525;BME280;15940;48.734;9.112;2023-01-29T08:24:26;97613.25;;;-0.24;74.04
9525;BME280;15940;48.734;9.112;2023-01-29T08:26:53;97615.56;;;-0.34;74.68
9525;BME280;15940;48.734;9.112;2023-01-29T08:29:21;97623.47;;;-0.19;74.39
9525;BME280;15940;48.734;9.112;2023-01-29T08:31:48;97635.28;;;-0.20;75.00
9525;BME280;15940;48.734;9.112;2023-01-29T08:34:16;97635.66;;;-0.18;73.87
9525;BME280;15940;48.734;9.112;2023-01-29T08:36:42;97636.41;;;-0.18;75.09
9525;BME280;15940;48.734;9.112;2023-01-29T08:39:10;97632.13;;;-0.01;73.89
9525;BME280;15940;48.734;9.112;2023-01-29T08:41:36;97626.78;;;-0.01;72.57
9525;BME280;15940;48.734;9.112;2023-01-29T08:44:04;97631.91;;;-0.32;72.67
9525;BME280;15940;48.734;9.112;2023-01-29T08:46:32;97635.34;;;-0.38;73.33
9525;BME280;15940;48.734;9.112;2023-01-29T08:48:59;97643.06;;;-0.69;72.01
9525;BME280;15940;48.734;9.112;2023-01-29T08:51:26;97639.31;;;-0.86;72.14
9525;BME280;15940;48.734;9.112;2023-01-29T08:53:53;97648.81;;;-0.88;74.89
9525;BME280;15940;48.734;9.112;2023-01-29T08:56:20;97648.75;;;-0.67;75.85
9525;BME280;15940;48.734;9.112;2023-01-29T08:58:47;97647.06;;;-0.18;74.21
9525;BME280;15940;48.734;9.112;2023-01-29T09:01:14;97640.50;;;0.01;71.88
9525;BME280;15940;48.734;9.112;2023-01-29T09:03:42;97639.50;;;-0.26;70.51
9525;BME280;15940;48.734;9.112;2023-01-29T09:06:13;97638.69;;;-0.20;72.18
9525;BME280;15940;48.734;9.112;2023-01-29T09:08:40;97645.06;;;-0.03;72.74
9525;BME280;15940;48.734;9.112;2023-01-29T09:11:07;97637.09;;;-0.03;70.88
9525;BME280;15940;48.734;9.112;2023-01-29T09:13:35;97650.88;;;-0.19;70.25
9525;BME280;15940;48.734;9.112;2023-01-29T09:16:03;97647.91;;;-0.35;71.43
9525;BME280;15940;48.734;9.112;2023-01-29T09:18:31;97644.44;;;-0.29;73.09
9525;BME280;15940;48.734;9.112;2023-01-29T09:21:00;97659.22;;;-0.13;70.00
9525;BME280;15940;48.734;9.112;2023-01-29T09:23:28;97653.53;;;-0.19;70.67
9525;BME280;15940;48.734;9.112;2023-01-29T09:25:55;97658.09;;;-0.19;70.48
9525;BME280;15940;48.734;9.112;2023-01-29T09:28:22;97648.88;;;-0.04;69.55
9525;BME280;15940;48.734;9.112;2023-01-29T09:30:49;97657.97;;;0.06;71.89
9525;BME280;15940;48.734;9.112;2023-01-29T09:33:16;97646.91;;;0.07;69.27
9525;BME280;15940;48.734;9.112;2023-01-29T09:35:44;97657.28;;;-0.06;69.24
9525;BME280;15940;48.734;9.112;2023-01-29T09:38:13;97655.81;;;-0.17;70.87
9525;BME280;15940;48.734;9.112;2023-01-29T09:40:51;97652.78;;;-0.23;70.08
9525;BME280;15940;48.734;9.112;2023-01-29T09:43:24;97650.69;;;0.13;71.12
9525;BME280;15940;48.734;9.112;2023-01-29T09:45:56;97647.66;;;0.11;69.78
9525;BME280;15940;48.734;9.112;2023-01-29T09:48:29;97641.28;;;0.57;70.91
9525;BME280;15940;48.734;9.112;2023-01-29T09:51:00;97636.81;;;0.40;67.78
9525;BME280;15940;48.734;9.112;2023-01-29T09:53:37;97634.88;;;0.44;70.16
9525;BME280;15940;48.734;9.112;2023-01-29T09:56:12;97626.25;;;0.77;69.77
9525;BME280;15940;48.734;9.112;2023-01-29T09:58:42;97614.88;;;0.70;68.09
9525;BME280;15940;48.734;9.112;2023-01-29T10:01:14;97611.59;;;0.51;68.15
9525;BME280;15940;48.734;9.112;2023-01-29T10:03:59;97613.75;;;0.67;68.90
9525;BME280;15940;48.734;9.112;2023-01-29T10:06:42;97596.03;;;0.88;69.76
9525;BME280;15940;48.734;9.112;2023-01-29T10:09:32;97592.53;;;0.94;66.61
9525;BME280;15940;48.734;9.112;2023-01-29T10:12:18;97584.53;;;0.94;67.79
9525;BME280;15940;48.734;9.112;2023-01-29T10:14:59;97585.28;;;0.98;66.59
9525;BME280;15940;48.734;9.112;2023-01-29T10:17:49;97585.31;;;1.29;66.90
9525;BME280;15940;48.734;9.112;2023-01-29T10:20:51;97581.28;;;1.13;65.45
9525;BME280;15940;48.734;9.112;2023-01-29T10:23:24;97573.66;;;1.16;66.57
9525;BME280;15940;48.734;9.112;2023-01-29T10:25:54;97568.09;;;0.99;65.36
9525;BME280;15940;48.734;9.112;2023-01-29T10:28:27;97573.63;;;0.81;66.28
9525;BME280;15940;48.734;9.112;2023-01-29T10:30:59;97582.81;;;0.77;67.74
9525;BME280;15940;48.734;9.112;2023-01-29T10:33:31;97584.91;;;0.96;67.73
9525;BME280;15940;48.734;9.112;2023-01-29T10:36:07;97588.97;;;1.08;67.16
9525;BME280;15940;48.734;9.112;2023-01-29T10:38:42;97581.25;;;0.79;66.09
9525;BME280;15940;48.734;9.112;2023-01-29T10:41:37;97582.81;;;0.77;67.16
9525;BME280;15940;48.734;9.112;2023-01-29T10:44:22;97587.06;;;1.08;67.09
9525;BME280;15940;48.734;9.112;2023-01-29T10:50:08;97589.09;;;0.97;65.87
9525;BME280;15940;48.734;9.112;2023-01-29T10:52:50;97588.41;;;0.90;66.71
9525;BME280;15940;48.734;9.112;2023-01-29T10:55:36;97591.19;;;1.13;65.51
9525;BME280;15940;48.734;9.112;2023-01-29T10:58:19;97583.13;;;1.20;65.66
9525;BME280;15940;48.734;9.112;2023-01-29T11:00:47;97570.31;;;1.38;66.01
9525;BME280;15940;48.734;9.112;2023-01-29T11:03:20;97583.94;;;1.48;64.77
9525;BME280;15940;48.734;9.112;2023-01-29T11:05:54;97580.44;;;1.54;65.88
9525;BME280;15940;48.734;9.112;2023-01-29T11:08:26;97569.16;;;1.70;63.92
9525;BME280;15940;48.734;9.112;2023-01-29T11:11:04;97583.28;;;1.40;64.03
9525;BME280;15940;48.734;9.112;2023-01-29T11:13:39;97591.56;;;1.49;65.43
9525;BME280;15940;48.734;9.112;2023-01-29T11:16:09;97585.44;;;1.49;64.23
9525;BME280;15940;48.734;9.112;2023-01-29T11:18:55;97589.34;;;1.44;66.37
9525;BME280;15940;48.734;9.112;2023-01-29T11:21:24;97581.88;;;1.62;65.99
9525;BME280;15940;48.734;9.112;2023-01-29T11:24:06;97566.25;;;1.88;65.32
9525;BME280;15940;48.734;9.112;2023-01-29T11:26:39;97565.38;;;1.67;64.13
9525;BME280;15940;48.734;9.112;2023-01-29T11:29:40;97561.94;;;1.67;64.40
9525;BME280;15940;48.734;9.112;2023-01-29T11:32:12;97569.91;;;1.40;64.36
9525;BME280;15940;48.734;9.112;2023-01-29T11:34:59;97561.09;;;1.12;66.67
9525;BME280;15940;48.734;9.112;2023-01-29T11:37:33;97554.78;;;1.30;66.63
9525;BME280;15940;48.734;9.112;2023-01-29T11:40:05;97544.56;;;1.55;65.53
9525;BME280;15940;48.734;9.112;2023-01-29T11:42:52;97538.25;;;1.69;66.14
9525;BME280;15940;48.734;9.112;2023-01-29T11:45:27;97543.25;;;1.94;66.10
9525;BME280;15940;48.734;9.112;2023-01-29T11:47:57;97537.91;;;1.94;64.80
9525;BME280;15940;48.734;9.112;2023-01-29T11:50:28;97537.72;;;1.81;64.38
9525;BME280;15940;48.734;9.112;2023-01-29T11:52:58;97535.91;;;1.75;63.90
9525;BME280;15940;48.734;9.112;2023-01-29T11:55:29;97538.00;;;1.60;63.83
9525;BME280;15940;48.734;9.112;2023-01-29T11:58:01;97538.13;;;1.53;64.09
9525;BME280;15940;48.734;9.112;2023-01-29T12:00:33;97527.47;;;1.49;65.06
9525;BME280;15940;48.734;9.112;2023-01-29T12:03:06;97533.72;;;1.39;64.57
9525;BME280;15940;48.734;9.112;2023-01-29T12:05:38;97543.91;;;1.48;66.75
9525;BME280;15940;48.734;9.112;2023-01-29T12:08:16;97535.19;;;1.43;64.52
9525;BME280;15940;48.734;9.112;2023-01-29T12:10:44;97526.78;;;1.45;65.18
9525;BME280;15940;48.734;9.112;2023-01-29T12:13:24;97496.44;;;1.59;66.76
9525;BME280;15940;48.734;9.112;2023-01-29T12:16:12;97505.38;;;1.76;66.78
9525;BME280;15940;48.734;9.112;2023-01-29T12:18:43;97486.81;;;1.92;66.02
9525;BME280;15940;48.734;9.112;2023-01-29T12:21:18;97488.66;;;1.95;65.13
9525;BME280;15940;48.734;9.112;2023-01-29T12:23:54;97479.06;;;1.97;65.41
9525;BME280;15940;48.734;9.112;2023-01-29T12:26:28;97476.69;;;1.80;62.78
9525;BME280;15940;48.734;9.112;2023-01-29T12:29:15;97472.06;;;1.30;64.51
9525;BME280;15940;48.734;9.112;2023-01-29T12:31:56;97462.28;;;1.20;66.79
9525;BME280;15940;48.734;9.112;2023-01-29T12:34:32;97457.03;;;1.12;66.62
9525;BME280;15940;48.734;9.112;2023-01-29T12:37:12;97444.00;;;1.18;65.81
9525;BME280;15940;48.734;9.112;2023-01-29T12:39:43;97439.00;;;1.24;66.92
9525;BME280;15940;48.734;9.112;2023-01-29T12:42:15;97426.19;;;1.38;67.10
9525;BME280;15940;48.734;9.112;2023-01-29T12:44:46;97415.91;;;1.64;66.17
9525;BME280;15940;48.734;9.112;2023-01-29T12:47:20;97425.34;;;1.45;64.51
9525;BME280;15940;48.734;9.112;2023-01-29T12:49:52;97410.09;;;1.42;66.67
9525;BME280;15940;48.734;9.112;2023-01-29T12:52:31;97410.09;;;1.42;66.93
9525;BME280;15940;48.734;9.112;2023-01-29T12:55:02;97417.09;;;1.59;66.84
9525;BME280;15940;48.734;9.112;2023-01-29T12:57:40;97422.81;;;1.85;65.37
9525;BME280;15940;48.734;9.112;2023-01-29T13:00:12;97409.88;;;1.83;66.38
9525;BME280;15940;48.734;9.112;2023-01-29T13:02:48;97415.59;;;2.05;64.34
9525;BME280;15940;48.734;9.112;2023-01-29T13:05:22;97408.00;;;2.23;65.86
9525;BME280;15940;48.734;9.112;2023-01-29T13:07:55;97407.69;;;2.21;65.81
9525;BME280;15940;48.734;9.112;2023-01-29T13:10:28;97414.22;;;2.40;65.96
9525;BME280;15940;48.734;9.112;2023-01-29T13:13:01;97407.81;;;2.34;63.68
9525;BME280;15940;48.734;9.112;2023-01-29T13:15:34;97398.72;;;2.32;63.49
9525;BME280;15940;48.734;9.112;2023-01-29T13:18:28;97391.22;;;2.23;65.57
9525;BME280;15940;48.734;9.112;2023-01-29T13:20:58;97401.03;;;2.29;65.63
9525;BME280;15940;48.734;9.112;2023-01-29T13:23:32;97383.28;;;2.19;63.08
9525;BME280;15940;48.734;9.112;2023-01-29T13:26:01;97387.91;;;2.15;65.79
9525;BME280;15940;48.734;9.112;2023-01-29T13:28:28;97385.72;;;1.90;65.17
9525;BME280;15940;48.734;9.112;2023-01-29T13:31:21;97381.75;;;1.75;64.65
9525;BME280;15940;48.734;9.112;2023-01-29T13:34:03;97383.66;;;1.98;66.29
9525;BME280;15940;48.734;9.112;2023-01-29T13:36:33;97390.22;;;1.93;64.74
9525;BME280;15940;48.734;9.112;2023-01-29T13:39:05;97388.31;;;1.94;63.53
9525;BME280;15940;48.734;9.112;2023-01-29T13:41:36;97384.84;;;2.17;64.33
9525;BME280;15940;48.734;9.112;2023-01-29T13:44:07;97405.00;;;1.98;62.11
9525;BME280;15940;48.734;9.112;2023-01-29T13:46:39;97398.31;;;1.90;64.01
9525;BME280;15940;48.734;9.112;2023-01-29T13:49:30;97391.28;;;1.99;64.98